sensor_id;sensor_type;location;lat;lon;timestamp;pressure;altitude;pressure_sealevel;temperature;humidity
49178;BME280;35016;55.674;37.468;2023-01-09T00:12:04;100508.31;;;-13.52;69.91
49178;BME280;35016;55.674;37.468;2023-01-09T00:15:18;100530.94;;;-13.52;69.50
49178;BME280;35016;55.674;37.468;2023-01-09T00:23:39;100567.72;;;-13.41;69.42
49178;BME280;35016;55.674;37.468;2023-01-09T00:26:21;100546.44;;;-13.49;69.13
49178;BME280;35016;55.674;37.468;2023-01-09T00:28:51;100568.06;;;-13.47;69.08
49178;BME280;35016;55.674;37.468;2023-01-09T00:31:46;100553.38;;;-13.65;69.37
49178;BME280;35016;55.674;37.468;2023-01-09T00:39:30;100560.31;;;-13.49;69.79
49178;BME280;35016;55.674;37.468;2023-01-09T01:02:17;100538.78;;;-13.85;69.75
49178;BME280;35016;55.674;37.468;2023-01-09T01:14:04;100557.47;;;-13.94;69.22
49178;BME280;35016;55.674;37.468;2023-01-09T01:39:35;100547.69;;;-14.06;69.86
49178;BME280;35016;55.674;37.468;2023-01-09T01:43:58;100540.19;;;-14.30;69.15
49178;BME280;35016;55.674;37.468;2023-01-09T01:46:47;100558.88;;;-14.04;68.56
49178;BME280;35016;55.674;37.468;2023-01-09T01:50:12;100555.19;;;-14.00;68.99
49178;BME280;35016;55.674;37.468;2023-01-09T01:54:25;100561.03;;;-14.13;70.01
49178;BME280;35016;55.674;37.468;2023-01-09T01:58:01;100566.59;;;-13.86;70.29
49178;BME280;35016;55.674;37.468;2023-01-09T02:10:14;100563.34;;;-13.73;70.67
49178;BME280;35016;55.674;37.468;2023-01-09T02:36:57;100547.91;;;-13.61;70.58
49178;BME280;35016;55.674;37.468;2023-01-09T02:39:51;100562.16;;;-13.51;70.86
49178;BME280;35016;55.674;37.468;2023-01-09T02:42:25;100562.94;;;-13.49;69.97
49178;BME280;35016;55.674;37.468;2023-01-09T02:44:58;100580.69;;;-13.39;70.05
49178;BME280;35016;55.674;37.468;2023-01-09T02:47:36;100581.34;;;-13.36;70.36
49178;BME280;35016;55.674;37.468;2023-01-09T02:50:09;100572.09;;;-13.41;70.94
49178;BME280;35016;55.674;37.468;2023-01-09T02:52:52;100582.78;;;-13.30;71.05
49178;BME280;35016;55.674;37.468;2023-01-09T02:59:10;100588.81;;;-13.28;69.85
49178;BME280;35016;55.674;37.468;2023-01-09T03:05:00;100590.44;;;-13.43;70.72
49178;BME280;35016;55.674;37.468;2023-01-09T03:08:18;100571.28;;;-13.59;69.58
49178;BME280;35016;55.674;37.468;2023-01-09T03:19:58;100608.59;;;-13.74;69.29
49178;BME280;35016;55.674;37.468;2023-01-09T03:23:08;100600.50;;;-13.86;70.32
49178;BME280;35016;55.674;37.468;2023-01-09T03:25:36;100605.38;;;-13.97;69.48
49178;BME280;35016;55.674;37.468;2023-01-09T03:28:06;100590.81;;;-14.01;69.84
49178;BME280;35016;55.674;37.468;2023-01-09T03:30:35;100593.66;;;-14.05;69.30
49178;BME280;35016;55.674;37.468;2023-01-09T03:33:03;100587.00;;;-14.11;70.28
49178;BME280;35016;55.674;37.468;2023-01-09T03:35:37;100585.06;;;-14.25;70.18
49178;BME280;35016;55.674;37.468;2023-01-09T03:38:04;100595.25;;;-14.20;69.84
49178;BME280;35016;55.674;37.468;2023-01-09T03:40:33;100616.03;;;-14.01;70.40
49178;BME280;35016;55.674;37.468;2023-01-09T03:43:03;100610.34;;;-13.92;70.47
49178;BME280;35016;55.674;37.468;2023-01-09T03:45:30;100612.19;;;-13.94;69.64
49178;BME280;35016;55.674;37.468;2023-01-09T03:47:58;100604.22;;;-13.91;69.45
49178;BME280;35016;55.674;37.468;2023-01-09T03:50:26;100598.00;;;-13.89;70.31
49178;BME280;35016;55.674;37.468;2023-01-09T03:52:53;100613.81;;;-13.92;69.99
49178;BME280;35016;55.674;37.468;2023-01-09T03:55:20;100613.72;;;-13.90;69.54
49178;BME280;35016;55.674;37.468;2023-01-09T03:57:51;100607.97;;;-13.97;69.35
49178;BME280;35016;55.674;37.468;2023-01-09T04:00:19;100614.97;;;-13.97;70.31
49178;BME280;35016;55.674;37.468;2023-01-09T04:02:49;100613.34;;;-14.00;70.17
49178;BME280;35016;55.674;37.468;2023-01-09T04:05:19;100615.03;;;-13.99;69.27
49178;BME280;35016;55.674;37.468;2023-01-09T04:07:54;100609.81;;;-13.99;70.14
49178;BME280;35016;55.674;37.468;2023-01-09T04:10:23;100625.91;;;-13.91;70.45
49178;BME280;35016;55.674;37.468;2023-01-09T04:12:56;100614.72;;;-13.93;70.63
49178;BME280;35016;55.674;37.468;2023-01-09T04:15:27;100622.53;;;-13.93;69.87
49178;BME280;35016;55.674;37.468;2023-01-09T04:17:58;100619.25;;;-13.96;69.54
49178;BME280;35016;55.674;37.468;2023-01-09T04:20:30;100614.81;;;-13.94;69.77
49178;BME280;35016;55.674;37.468;2023-01-09T04:23:44;100612.97;;;-13.92;69.41
49178;BME280;35016;55.674;37.468;2023-01-09T04:26:22;100622.69;;;-13.96;69.49
49178;BME280;35016;55.674;37.468;2023-01-09T04:29:27;100636.25;;;-13.89;68.39
49178;BME280;35016;55.674;37.468;2023-01-09T04:33:11;100602.88;;;-14.16;68.83
49178;BME280;35016;55.674;37.468;2023-01-09T04:36:30;100632.41;;;-14.17;69.96
49178;BME280;35016;55.674;37.468;2023-01-09T04:42:44;100641.28;;;-14.21;70.08
49178;BME280;35016;55.674;37.468;2023-01-09T04:45:14;100627.13;;;-14.32;70.01
49178;BME280;35016;55.674;37.468;2023-01-09T04:53:50;100656.53;;;-14.30;69.75
49178;BME280;35016;55.674;37.468;2023-01-09T04:56:50;100626.13;;;-14.30;70.01
49178;BME280;35016;55.674;37.468;2023-01-09T05:03:14;100650.41;;;-14.29;69.42
49178;BME280;35016;55.674;37.468;2023-01-09T05:06:03;100629.94;;;-14.37;70.32
49178;BME280;35016;55.674;37.468;2023-01-09T05:09:01;100626.13;;;-14.30;69.48
49178;BME280;35016;55.674;37.468;2023-01-09T05:11:28;100644.72;;;-14.37;69.22
49178;BME280;35016;55.674;37.468;2023-01-09T05:14:07;100635.59;;;-14.46;69.63
49178;BME280;35016;55.674;37.468;2023-01-09T05:16:51;100657.06;;;-14.41;70.03
49178;BME280;35016;55.674;37.468;2023-01-09T05:19:29;100675.84;;;-14.34;69.35
49178;BME280;35016;55.674;37.468;2023-01-09T05:22:30;100656.59;;;-14.32;69.44
49178;BME280;35016;55.674;37.468;2023-01-09T05:24:58;100640.28;;;-14.53;69.80
49178;BME280;35016;55.674;37.468;2023-01-09T05:27:46;100660.94;;;-14.50;68.80
49178;BME280;35016;55.674;37.468;2023-01-09T05:30:24;100670.91;;;-14.41;69.35
49178;BME280;35016;55.674;37.468;2023-01-09T05:32:59;100692.38;;;-14.35;69.94
49178;BME280;35016;55.674;37.468;2023-01-09T05:35:29;100674.00;;;-14.32;69.25
49178;BME280;35016;55.674;37.468;2023-01-09T05:38:15;100653.97;;;-14.49;69.70
49178;BME280;35016;55.674;37.468;2023-01-09T05:41:15;100662.94;;;-14.55;68.95
49178;BME280;35016;55.674;37.468;2023-01-09T05:44:01;100657.63;;;-14.70;68.77
49178;BME280;35016;55.674;37.468;2023-01-09T05:46:40;100709.72;;;-14.53;69.45
49178;BME280;35016;55.674;37.468;2023-01-09T05:49:44;100656.84;;;-14.91;68.54
49178;BME280;35016;55.674;37.468;2023-01-09T05:52:42;100688.06;;;-14.73;69.55
49178;BME280;35016;55.674;37.468;2023-01-09T05:55:57;100720.41;;;-14.78;68.48
49178;BME280;35016;55.674;37.468;2023-01-09T05:58:51;100655.75;;;-15.06;68.38
49178;BME280;35016;55.674;37.468;2023-01-09T06:01:23;100670.88;;;-15.14;68.36
49178;BME280;35016;55.674;37.468;2023-01-09T06:04:01;100694.91;;;-15.09;69.01
49178;BME280;35016;55.674;37.468;2023-01-09T06:07:45;100707.69;;;-15.05;68.97
49178;BME280;35016;55.674;37.468;2023-01-09T06:10:17;100692.84;;;-15.21;68.76
49178;BME280;35016;55.674;37.468;2023-01-09T06:12:50;100730.94;;;-15.00;68.81
49178;BME280;35016;55.674;37.468;2023-01-09T06:15:28;100698.00;;;-15.20;69.39
49178;BME280;35016;55.674;37.468;2023-01-09T06:18:01;100700.59;;;-15.20;68.77
49178;BME280;35016;55.674;37.468;2023-01-09T06:20:39;100707.97;;;-15.11;68.91
49178;BME280;35016;55.674;37.468;2023-01-09T06:23:10;100719.06;;;-14.87;68.75
49178;BME280;35016;55.674;37.468;2023-01-09T06:25:46;100699.38;;;-14.92;69.90
49178;BME280;35016;55.674;37.468;2023-01-09T06:28:25;100731.66;;;-14.78;69.30
49178;BME280;35016;55.674;37.468;2023-01-09T06:30:53;100712.81;;;-14.64;69.87
49178;BME280;35016;55.674;37.468;2023-01-09T06:33:40;100741.88;;;-14.54;69.51
49178;BME280;35016;55.674;37.468;2023-01-09T06:36:24;100723.72;;;-14.56;70.03
49178;BME280;35016;55.674;37.468;2023-01-09T06:38:55;100732.88;;;-14.47;70.43
49178;BME280;35016;55.674;37.468;2023-01-09T06:41:25;100729.69;;;-14.35;69.74
49178;BME280;35016;55.674;37.468;2023-01-09T06:43:53;100749.94;;;-14.23;69.88
49178;BME280;35016;55.674;37.468;2023-01-09T06:46:20;100717.28;;;-14.30;69.16
49178;BME280;35016;55.674;37.468;2023-01-09T06:49:01;100741.50;;;-14.28;69.71
49178;BME280;35016;55.674;37.468;2023-01-09T06:51:31;100734.66;;;-14.12;70.44
49178;BME280;35016;55.674;37.468;2023-01-09T06:54:30;100729.09;;;-14.23;69.94
49178;BME280;35016;55.674;37.468;2023-01-09T06:57:13;100746.00;;;-14.13;69.58
49178;BME280;35016;55.674;37.468;2023-01-09T06:59:44;100734.50;;;-14.09;69.83
49178;BME280;35016;55.674;37.468;2023-01-09T07:02:21;100730.44;;;-14.14;69.35
49178;BME280;35016;55.674;37.468;2023-01-09T07:04:52;100747.47;;;-14.07;70.46
49178;BME280;35016;55.674;37.468;2023-01-09T07:07:32;100709.31;;;-14.08;70.31
49178;BME280;35016;55.674;37.468;2023-01-09T07:10:05;100759.41;;;-13.84;70.33
49178;BME280;35016;55.674;37.468;2023-01-09T07:12:38;100713.75;;;-13.93;70.52
49178;BME280;35016;55.674;37.468;2023-01-09T07:15:06;100732.13;;;-13.77;70.20
49178;BME280;35016;55.674;37.468;2023-01-09T07:17:38;100742.78;;;-13.64;70.79
49178;BME280;35016;55.674;37.468;2023-01-09T07:20:09;100741.78;;;-13.79;70.01
49178;BME280;35016;55.674;37.468;2023-01-09T07:22:44;100754.19;;;-13.67;69.37
49178;BME280;35016;55.674;37.468;2023-01-09T07:25:32;100751.34;;;-13.62;70.52
49178;BME280;35016;55.674;37.468;2023-01-09T07:28:03;100722.19;;;-13.88;69.37
49178;BME280;35016;55.674;37.468;2023-01-09T07:30:38;100743.69;;;-13.83;69.29
49178;BME280;35016;55.674;37.468;2023-01-09T07:33:24;100722.06;;;-13.85;70.18
49178;BME280;35016;55.674;37.468;2023-01-09T07:36:03;100747.22;;;-13.66;68.92
49178;BME280;35016;55.674;37.468;2023-01-09T07:38:38;100742.84;;;-13.83;70.06
49178;BME280;35016;55.674;37.468;2023-01-09T07:41:15;100790.47;;;-13.62;69.68
49178;BME280;35016;55.674;37.468;2023-01-09T07:44:04;100741.38;;;-13.71;70.15
49178;BME280;35016;55.674;37.468;2023-01-09T07:47:02;100757.91;;;-13.54;69.67
49178;BME280;35016;55.674;37.468;2023-01-09T07:49:30;100758.38;;;-13.46;69.66
49178;BME280;35016;55.674;37.468;2023-01-09T07:52:09;100729.66;;;-13.63;69.83
49178;BME280;35016;55.674;37.468;2023-01-09T07:54:37;100757.34;;;-13.60;69.11
49178;BME280;35016;55.674;37.468;2023-01-09T07:57:14;100761.75;;;-13.43;69.64
49178;BME280;35016;55.674;37.468;2023-01-09T07:59:52;100743.53;;;-13.62;69.27
49178;BME280;35016;55.674;37.468;2023-01-09T08:02:43;100741.25;;;-13.51;68.92
49178;BME280;35016;55.674;37.468;2023-01-09T08:05:19;100748.94;;;-13.48;68.93
49178;BME280;35016;55.674;37.468;2023-01-09T08:07:59;100770.47;;;-13.44;69.53
49178;BME280;35016;55.674;37.468;2023-01-09T08:10:39;100793.25;;;-13.31;68.31
49178;BME280;35016;55.674;37.468;2023-01-09T08:13:16;100755.44;;;-13.39;68.53
49178;BME280;35016;55.674;37.468;2023-01-09T08:15:43;100749.69;;;-13.46;69.29
49178;BME280;35016;55.674;37.468;2023-01-09T08:18:59;100754.59;;;-13.40;69.10
49178;BME280;35016;55.674;37.468;2023-01-09T08:22:08;100749.84;;;-13.32;68.41
49178;BME280;35016;55.674;37.468;2023-01-09T08:24:45;100737.09;;;-13.38;68.77
49178;BME280;35016;55.674;37.468;2023-01-09T08:27:44;100747.53;;;-13.38;68.57
49178;BME280;35016;55.674;37.468;2023-01-09T08:30:30;100779.38;;;-13.31;68.37
49178;BME280;35016;55.674;37.468;2023-01-09T08:33:08;100751.63;;;-13.50;68.17
49178;BME280;35016;55.674;37.468;2023-01-09T08:35:38;100795.75;;;-13.28;68.58
49178;BME280;35016;55.674;37.468;2023-01-09T08:38:55;100751.84;;;-13.54;68.60
49178;BME280;35016;55.674;37.468;2023-01-09T08:41:31;100736.47;;;-13.60;68.40
49178;BME280;35016;55.674;37.468;2023-01-09T08:44:23;100770.38;;;-13.60;67.62
49178;BME280;35016;55.674;37.468;2023-01-09T08:47:28;100744.63;;;-13.66;67.93
49178;BME280;35016;55.674;37.468;2023-01-09T08:50:37;100737.03;;;-13.71;68.81
49178;BME280;35016;55.674;37.468;2023-01-09T09:00:22;100790.28;;;-13.40;68.79
49178;BME280;35016;55.674;37.468;2023-01-09T09:06:34;100739.00;;;-13.76;68.29
49178;BME280;35016;55.674;37.468;2023-01-09T09:09:16;100736.94;;;-13.87;68.61
49178;BME280;35016;55.674;37.468;2023-01-09T09:11:52;100758.78;;;-13.72;68.44
49178;BME280;35016;55.674;37.468;2023-01-09T09:14:34;100759.88;;;-13.76;67.81
49178;BME280;35016;55.674;37.468;2023-01-09T09:17:38;100757.72;;;-13.68;68.49
49178;BME280;35016;55.674;37.468;2023-01-09T09:20:14;100741.78;;;-13.79;69.24
49178;BME280;35016;55.674;37.468;2023-01-09T09:22:48;100742.38;;;-13.74;68.85
49178;BME280;35016;55.674;37.468;2023-01-09T09:25:23;100734.03;;;-13.81;68.70
49178;BME280;35016;55.674;37.468;2023-01-09T09:27:59;100719.00;;;-13.75;68.55
49178;BME280;35016;55.674;37.468;2023-01-09T09:30:37;100748.06;;;-13.66;68.84
49178;BME280;35016;55.674;37.468;2023-01-09T09:33:19;100716.94;;;-13.69;68.51
49178;BME280;35016;55.674;37.468;2023-01-09T09:35:49;100773.78;;;-13.58;67.83
49178;BME280;35016;55.674;37.468;2023-01-09T09:38:19;100786.38;;;-13.49;68.71
49178;BME280;35016;55.674;37.468;2023-01-09T09:41:01;100762.28;;;-13.54;67.49
49178;BME280;35016;55.674;37.468;2023-01-09T09:43:53;100760.75;;;-13.41;67.91
49178;BME280;35016;55.674;37.468;2023-01-09T09:47:17;100749.47;;;-13.41;68.21
49178;BME280;35016;55.674;37.468;2023-01-09T09:50:17;100747.47;;;-13.36;67.86
49178;BME280;35016;55.674;37.468;2023-01-09T09:53:09;100761.97;;;-13.31;67.27
49178;BME280;35016;55.674;37.468;2023-01-09T09:55:41;100713.72;;;-13.57;67.85
49178;BME280;35016;55.674;37.468;2023-01-09T09:58:21;100779.59;;;-13.36;66.96
49178;BME280;35016;55.674;37.468;2023-01-09T10:00:55;100746.63;;;-13.54;67.73
49178;BME280;35016;55.674;37.468;2023-01-09T10:03:35;100757.34;;;-13.60;67.94
49178;BME280;35016;55.674;37.468;2023-01-09T10:06:09;100773.63;;;-13.55;67.96
49178;BME280;35016;55.674;37.468;2023-01-09T10:11:43;100772.44;;;-13.67;68.08
49178;BME280;35016;55.674;37.468;2023-01-09T10:14:12;100757.06;;;-13.54;67.74
49178;BME280;35016;55.674;37.468;2023-01-09T10:31:12;100781.84;;;-13.46;68.19
49178;BME280;35016;55.674;37.468;2023-01-09T10:39:22;100776.47;;;-13.42;68.06
49178;BME280;35016;55.674;37.468;2023-01-09T10:42:00;100776.00;;;-13.51;68.15
49178;BME280;35016;55.674;37.468;2023-01-09T10:44:37;100777.63;;;-13.48;68.91
49178;BME280;35016;55.674;37.468;2023-01-09T10:47:15;100774.25;;;-13.50;67.49
49178;BME280;35016;55.674;37.468;2023-01-09T10:49:52;100784.06;;;-13.55;68.80
49178;BME280;35016;55.674;37.468;2023-01-09T10:52:44;100764.69;;;-13.68;67.52
49178;BME280;35016;55.674;37.468;2023-01-09T10:58:15;100753.19;;;-13.82;67.07
49178;BME280;35016;55.674;37.468;2023-01-09T11:00:51;100804.34;;;-13.62;68.68
49178;BME280;35016;55.674;37.468;2023-01-09T11:03:24;100777.66;;;-13.84;68.73
49178;BME280;35016;55.674;37.468;2023-01-09T11:05:55;100773.91;;;-13.79;68.15
49178;BME280;35016;55.674;37.468;2023-01-09T11:08:39;100786.63;;;-13.72;67.63
49178;BME280;35016;55.674;37.468;2023-01-09T11:11:13;100784.31;;;-13.79;68.32
49178;BME280;35016;55.674;37.468;2023-01-09T11:16:56;100758.44;;;-14.00;67.11
49178;BME280;35016;55.674;37.468;2023-01-09T11:19:59;100782.25;;;-14.08;67.54
49178;BME280;35016;55.674;37.468;2023-01-09T11:22:43;100783.44;;;-13.96;67.94
49178;BME280;35016;55.674;37.468;2023-01-09T11:25:19;100792.09;;;-13.96;67.27
49178;BME280;35016;55.674;37.468;2023-01-09T11:28:38;100785.41;;;-14.01;68.18
49178;BME280;35016;55.674;37.468;2023-01-09T11:31:12;100749.59;;;-14.15;67.17
49178;BME280;35016;55.674;37.468;2023-01-09T11:34:02;100773.22;;;-14.20;67.29
49178;BME280;35016;55.674;37.468;2023-01-09T11:36:30;100768.88;;;-14.19;67.36
49178;BME280;35016;55.674;37.468;2023-01-09T11:39:29;100761.97;;;-14.20;66.82
49178;BME280;35016;55.674;37.468;2023-01-09T11:42:01;100764.00;;;-14.27;67.99
49178;BME280;35016;55.674;37.468;2023-01-09T11:44:38;100741.34;;;-14.25;68.35
49178;BME280;35016;55.674;37.468;2023-01-09T11:47:38;100744.72;;;-14.23;66.72
49178;BME280;35016;55.674;37.468;2023-01-09T11:50:51;100759.94;;;-14.14;67.84
49178;BME280;35016;55.674;37.468;2023-01-09T11:56:55;100765.06;;;-14.31;68.21
49178;BME280;35016;55.674;37.468;2023-01-09T12:00:19;100765.56;;;-14.23;67.20
49178;BME280;35016;55.674;37.468;2023-01-09T12:03:07;100759.66;;;-14.26;67.72
49178;BME280;35016;55.674;37.468;2023-01-09T12:06:02;100759.38;;;-14.39;67.22
49178;BME280;35016;55.674;37.468;2023-01-09T12:11:16;100782.63;;;-14.16;68.50
49178;BME280;35016;55.674;37.468;2023-01-09T12:14:18;100785.22;;;-14.16;67.33
49178;BME280;35016;55.674;37.468;2023-01-09T12:21:29;100762.91;;;-14.40;66.80
49178;BME280;35016;55.674;37.468;2023-01-09T13:02:51;100779.50;;;-15.41;67.45
49178;BME280;35016;55.674;37.468;2023-01-09T13:10:01;100805.38;;;-15.38;67.36
49178;BME280;35016;55.674;37.468;2023-01-09T13:20:35;100787.88;;;-15.55;67.55
49178;BME280;35016;55.674;37.468;2023-01-09T13:23:50;100819.66;;;-15.48;67.78
49178;BME280;35016;55.674;37.468;2023-01-09T13:26:34;100841.56;;;-15.54;67.57
49178;BME280;35016;55.674;37.468;2023-01-09T13:29:43;100807.72;;;-15.52;67.52
49178;BME280;35016;55.674;37.468;2023-01-09T13:35:17;100815.06;;;-15.84;67.91
49178;BME280;35016;55.674;37.468;2023-01-09T13:37:57;100827.16;;;-15.61;67.47
49178;BME280;35016;55.674;37.468;2023-01-09T13:40:40;100811.63;;;-15.84;67.53
49178;BME280;35016;55.674;37.468;2023-01-09T13:43:12;100814.28;;;-15.86;67.53
49178;BME280;35016;55.674;37.468;2023-01-09T13:46:00;100825.81;;;-15.71;67.61
49178;BME280;35016;55.674;37.468;2023-01-09T13:48:58;100839.72;;;-15.72;67.63
49178;BME280;35016;55.674;37.468;2023-01-09T13:54:13;100809.59;;;-16.00;67.44
49178;BME280;35016;55.674;37.468;2023-01-09T13:57:30;100839.53;;;-15.89;67.44
49178;BME280;35016;55.674;37.468;2023-01-09T14:18:16;100823.06;;;-16.12;68.09
49178;BME280;35016;55.674;37.468;2023-01-09T14:28:38;100840.28;;;-16.33;68.40
49178;BME280;35016;55.674;37.468;2023-01-09T14:42:13;100799.91;;;-16.40;68.04
49178;BME280;35016;55.674;37.468;2023-01-09T14:45:30;100835.91;;;-16.31;68.10
49178;BME280;35016;55.674;37.468;2023-01-09T14:49:04;100821.16;;;-16.30;67.68
49178;BME280;35016;55.674;37.468;2023-01-09T14:52:19;100784.66;;;-16.49;68.12
49178;BME280;35016;55.674;37.468;2023-01-09T14:56:02;100804.50;;;-16.48;68.35
49178;BME280;35016;55.674;37.468;2023-01-09T14:58:46;100812.34;;;-16.49;68.12
49178;BME280;35016;55.674;37.468;2023-01-09T15:01:33;100820.25;;;-16.52;68.44
49178;BME280;35016;55.674;37.468;2023-01-09T15:08:06;100808.13;;;-16.52;68.11
49178;BME280;35016;55.674;37.468;2023-01-09T15:11:02;100874.78;;;-16.29;68.52
49178;BME280;35016;55.674;37.468;2023-01-09T15:14:02;100843.25;;;-16.42;68.53
49178;BME280;35016;55.674;37.468;2023-01-09T15:16:39;100847.53;;;-16.41;68.03
49178;BME280;35016;55.674;37.468;2023-01-09T15:19:27;100861.13;;;-16.34;68.21
49178;BME280;35016;55.674;37.468;2023-01-09T15:22:29;100852.56;;;-16.36;68.18
49178;BME280;35016;55.674;37.468;2023-01-09T15:25:37;100838.66;;;-16.35;68.12
49178;BME280;35016;55.674;37.468;2023-01-09T15:28:30;100843.31;;;-16.21;68.01
49178;BME280;35016;55.674;37.468;2023-01-09T15:34:28;100818.88;;;-16.38;68.30
49178;BME280;35016;55.674;37.468;2023-01-09T15:37:00;100852.13;;;-16.25;67.84
49178;BME280;35016;55.674;37.468;2023-01-09T15:40:33;100839.34;;;-16.30;68.14
49178;BME280;35016;55.674;37.468;2023-01-09T15:44:27;100865.41;;;-16.33;68.02
49178;BME280;35016;55.674;37.468;2023-01-09T15:50:33;100826.41;;;-16.55;68.35
49178;BME280;35016;55.674;37.468;2023-01-09T15:58:05;100831.16;;;-16.43;68.10
49178;BME280;35016;55.674;37.468;2023-01-09T16:01:41;100852.19;;;-16.27;68.41
49178;BME280;35016;55.674;37.468;2023-01-09T16:04:44;100892.88;;;-16.27;68.68
49178;BME280;35016;55.674;37.468;2023-01-09T16:07:20;100849.94;;;-16.36;68.06
49178;BME280;35016;55.674;37.468;2023-01-09T16:09:58;100902.38;;;-16.26;68.18
49178;BME280;35016;55.674;37.468;2023-01-09T16:12:42;100866.47;;;-16.39;68.47
49178;BME280;35016;55.674;37.468;2023-01-09T16:15:54;100860.84;;;-16.26;68.07
49178;BME280;35016;55.674;37.468;2023-01-09T16:18:32;100855.25;;;-16.39;68.07
49178;BME280;35016;55.674;37.468;2023-01-09T16:21:28;100862.69;;;-16.30;68.56
49178;BME280;35016;55.674;37.468;2023-01-09T16:26:44;100843.66;;;-16.54;67.85
49178;BME280;35016;55.674;37.468;2023-01-09T16:29:35;100876.03;;;-16.39;68.09
49178;BME280;35016;55.674;37.468;2023-01-09T16:32:17;100887.38;;;-16.42;68.22
49178;BME280;35016;55.674;37.468;2023-01-09T16:34:59;100848.59;;;-16.70;68.28
49178;BME280;35016;55.674;37.468;2023-01-09T16:37:32;100873.59;;;-16.44;68.41
49178;BME280;35016;55.674;37.468;2023-01-09T16:42:44;100870.22;;;-16.46;68.28
49178;BME280;35016;55.674;37.468;2023-01-09T16:45:34;100866.78;;;-16.48;68.10
49178;BME280;35016;55.674;37.468;2023-01-09T16:48:21;100860.88;;;-16.51;68.14
49178;BME280;35016;55.674;37.468;2023-01-09T16:50:50;100870.94;;;-16.42;68.45
49178;BME280;35016;55.674;37.468;2023-01-09T16:53:33;100871.13;;;-16.48;67.98
49178;BME280;35016;55.674;37.468;2023-01-09T16:56:18;100849.41;;;-16.68;68.30
49178;BME280;35016;55.674;37.468;2023-01-09T16:58:47;100813.88;;;-16.66;67.85
49178;BME280;35016;55.674;37.468;2023-01-09T17:01:15;100856.28;;;-16.43;67.69
49178;BME280;35016;55.674;37.468;2023-01-09T17:03:52;100857.25;;;-16.46;67.95
49178;BME280;35016;55.674;37.468;2023-01-09T17:06:28;100811.50;;;-16.72;68.20
49178;BME280;35016;55.674;37.468;2023-01-09T17:09:04;100847.44;;;-16.63;68.03
49178;BME280;35016;55.674;37.468;2023-01-09T17:11:38;100884.97;;;-16.48;67.73
49178;BME280;35016;55.674;37.468;2023-01-09T17:14:58;100841.47;;;-16.65;67.93
49178;BME280;35016;55.674;37.468;2023-01-09T17:17:28;100826.84;;;-16.66;67.50
49178;BME280;35016;55.674;37.468;2023-01-09T17:19:56;100815.09;;;-16.76;67.60
49178;BME280;35016;55.674;37.468;2023-01-09T17:22:41;100828.94;;;-16.77;67.74
49178;BME280;35016;55.674;37.468;2023-01-09T17:25:13;100870.75;;;-16.61;68.09
49178;BME280;35016;55.674;37.468;2023-01-09T17:28:20;100842.78;;;-16.76;68.41
49178;BME280;35016;55.674;37.468;2023-01-09T17:31:44;100854.91;;;-16.53;67.54
49178;BME280;35016;55.674;37.468;2023-01-09T17:34:27;100847.66;;;-16.67;68.10
49178;BME280;35016;55.674;37.468;2023-01-09T17:37:18;100850.94;;;-16.64;67.91
49178;BME280;35016;55.674;37.468;2023-01-09T17:39:46;100877.28;;;-16.51;68.28
49178;BME280;35016;55.674;37.468;2023-01-09T17:42:17;100878.97;;;-16.50;68.52
49178;BME280;35016;55.674;37.468;2023-01-09T17:44:47;100828.31;;;-16.60;68.68
49178;BME280;35016;55.674;37.468;2023-01-09T17:47:21;100901.88;;;-16.36;68.20
49178;BME280;35016;55.674;37.468;2023-01-09T17:50:26;100872.22;;;-16.54;68.10
49178;BME280;35016;55.674;37.468;2023-01-09T17:52:58;100876.88;;;-16.39;68.68
49178;BME280;35016;55.674;37.468;2023-01-09T17:55:35;100881.28;;;-16.41;68.22
49178;BME280;35016;55.674;37.468;2023-01-09T17:58:53;100873.59;;;-16.44;67.94
49178;BME280;35016;55.674;37.468;2023-01-09T18:01:54;100884.88;;;-16.45;68.20
49178;BME280;35016;55.674;37.468;2023-01-09T18:04:39;100850.84;;;-16.61;67.90
49178;BME280;35016;55.674;37.468;2023-01-09T18:07:28;100877.47;;;-16.55;67.83
49178;BME280;35016;55.674;37.468;2023-01-09T18:09:57;100868.41;;;-16.67;68.37
49178;BME280;35016;55.674;37.468;2023-01-09T18:12:29;100860.03;;;-16.52;67.76
49178;BME280;35016;55.674;37.468;2023-01-09T18:15:35;100847.50;;;-16.64;68.07
49178;BME280;35016;55.674;37.468;2023-01-09T18:18:34;100861.66;;;-16.49;68.04
49178;BME280;35016;55.674;37.468;2023-01-09T18:21:06;100899.44;;;-16.41;68.00
49178;BME280;35016;55.674;37.468;2023-01-09T18:24:07;100865.44;;;-16.58;68.07
49178;BME280;35016;55.674;37.468;2023-01-09T18:27:25;100869.19;;;-16.42;67.66
49178;BME280;35016;55.674;37.468;2023-01-09T18:30:11;100907.06;;;-16.36;68.18
49178;BME280;35016;55.674;37.468;2023-01-09T18:32:58;100862.91;;;-16.60;67.58
49178;BME280;35016;55.674;37.468;2023-01-09T18:36:16;100871.69;;;-16.39;67.78
49178;BME280;35016;55.674;37.468;2023-01-09T18:38:49;100857.31;;;-16.49;68.47
49178;BME280;35016;55.674;37.468;2023-01-09T18:41:19;100885.03;;;-16.49;67.91
49178;BME280;35016;55.674;37.468;2023-01-09T18:44:05;100829.66;;;-16.72;68.06
49178;BME280;35016;55.674;37.468;2023-01-09T18:46:41;100856.66;;;-16.54;67.90
49178;BME280;35016;55.674;37.468;2023-01-09T18:49:37;100856.50;;;-16.73;68.26
49178;BME280;35016;55.674;37.468;2023-01-09T18:52:11;100877.28;;;-16.51;68.15
49178;BME280;35016;55.674;37.468;2023-01-09T18:55:09;100845.34;;;-16.75;67.94
49178;BME280;35016;55.674;37.468;2023-01-09T18:57:39;100860.19;;;-16.80;68.26
49178;BME280;35016;55.674;37.468;2023-01-09T19:03:14;100841.50;;;-16.89;67.39
49178;BME280;35016;55.674;37.468;2023-01-09T19:05:43;100874.53;;;-16.95;67.63